sensor_id;sensor_type;location;lat;lon;timestamp;P1;durP1;ratioP1;P2;durP2;ratioP2
8285;SDS011;4181;43.416;24.598;2024-01-30T00:00:00;19.50;;;11.27;;
8285;SDS011;4181;43.416;24.598;2024-01-30T00:02:25;12.53;;;7.27;;
8285;SDS011;4181;43.416;24.598;2024-01-30T00:04:52;10.57;;;6.90;;
8285;SDS011;4181;43.416;24.598;2024-01-30T00:07:17;9.00;;;4.63;;
8285;SDS011;4181;43.416;24.598;2024-01-30T00:09:43;6.50;;;4.97;;
8285;SDS011;4181;43.416;24.598;2024-01-30T00:12:08;9.93;;;6.07;;
8285;SDS011;4181;43.416;24.598;2024-01-30T00:14:33;6.10;;;3.73;;
8285;SDS011;4181;43.416;24.598;2024-01-30T00:16:59;11.90;;;4.57;;
8285;SDS011;4181;43.416;24.598;2024-01-30T00:19:24;4.40;;;3.23;;
8285;SDS011;4181;43.416;24.598;2024-01-30T00:21:51;10.03;;;4.27;;
8285;SDS011;4181;43.416;24.598;2024-01-30T00:24:18;8.80;;;4.67;;
8285;SDS011;4181;43.416;24.598;2024-01-30T00:26:44;6.93;;;3.93;;
8285;SDS011;4181;43.416;24.598;2024-01-30T00:29:11;7.93;;;4.97;;
8285;SDS011;4181;43.416;24.598;2024-01-30T00:31:37;6.37;;;4.37;;
8285;SDS011;4181;43.416;24.598;2024-01-30T00:34:02;8.73;;;5.33;;
8285;SDS011;4181;43.416;24.598;2024-01-30T00:36:28;6.40;;;4.10;;
8285;SDS011;4181;43.416;24.598;2024-01-30T00:38:55;9.87;;;5.90;;
8285;SDS011;4181;43.416;24.598;2024-01-30T00:41:20;7.07;;;5.33;;
8285;SDS011;4181;43.416;24.598;2024-01-30T00:43:46;5.93;;;4.40;;
8285;SDS011;4181;43.416;24.598;2024-01-30T00:46:11;8.90;;;5.07;;
8285;SDS011;4181;43.416;24.598;2024-01-30T00:48:37;8.20;;;4.67;;
8285;SDS011;4181;43.416;24.598;2024-01-30T00:51:02;9.57;;;4.50;;
8285;SDS011;4181;43.416;24.598;2024-01-30T00:53:28;12.27;;;7.10;;
8285;SDS011;4181;43.416;24.598;2024-01-30T00:55:53;8.77;;;4.60;;
8285;SDS011;4181;43.416;24.598;2024-01-30T00:58:19;8.17;;;4.73;;
8285;SDS011;4181;43.416;24.598;2024-01-30T01:00:44;6.20;;;5.10;;
8285;SDS011;4181;43.416;24.598;2024-01-30T01:03:09;9.60;;;4.80;;
8285;SDS011;4181;43.416;24.598;2024-01-30T01:05:39;10.30;;;5.33;;
8285;SDS011;4181;43.416;24.598;2024-01-30T01:08:04;5.53;;;3.70;;
8285;SDS011;4181;43.416;24.598;2024-01-30T01:10:30;8.03;;;4.30;;
8285;SDS011;4181;43.416;24.598;2024-01-30T01:12:55;6.67;;;4.57;;
8285;SDS011;4181;43.416;24.598;2024-01-30T01:15:21;5.70;;;5.20;;
8285;SDS011;4181;43.416;24.598;2024-01-30T01:17:46;5.67;;;3.53;;
8285;SDS011;4181;43.416;24.598;2024-01-30T01:20:12;6.03;;;4.57;;
8285;SDS011;4181;43.416;24.598;2024-01-30T01:22:37;10.87;;;4.63;;
8285;SDS011;4181;43.416;24.598;2024-01-30T01:25:04;6.47;;;3.93;;
8285;SDS011;4181;43.416;24.598;2024-01-30T01:27:32;3.93;;;3.07;;
8285;SDS011;4181;43.416;24.598;2024-01-30T01:29:59;9.77;;;3.60;;
8285;SDS011;4181;43.416;24.598;2024-01-30T01:32:24;6.00;;;3.30;;
8285;SDS011;4181;43.416;24.598;2024-01-30T01:34:50;6.67;;;4.33;;
8285;SDS011;4181;43.416;24.598;2024-01-30T01:37:15;5.43;;;3.77;;
8285;SDS011;4181;43.416;24.598;2024-01-30T01:39:41;10.27;;;4.60;;
8285;SDS011;4181;43.416;24.598;2024-01-30T01:42:06;3.33;;;2.83;;
8285;SDS011;4181;43.416;24.598;2024-01-30T01:44:32;6.83;;;4.10;;
8285;SDS011;4181;43.416;24.598;2024-01-30T01:46:57;6.10;;;3.33;;
8285;SDS011;4181;43.416;24.598;2024-01-30T01:49:24;5.53;;;4.00;;
8285;SDS011;4181;43.416;24.598;2024-01-30T01:51:52;8.33;;;4.23;;
8285;SDS011;4181;43.416;24.598;2024-01-30T01:54:21;4.77;;;3.63;;
8285;SDS011;4181;43.416;24.598;2024-01-30T01:56:48;5.10;;;3.13;;
8285;SDS011;4181;43.416;24.598;2024-01-30T01:59:15;7.17;;;4.40;;
8285;SDS011;4181;43.416;24.598;2024-01-30T02:01:41;8.73;;;4.87;;
8285;SDS011;4181;43.416;24.598;2024-01-30T02:04:07;8.80;;;5.60;;
8285;SDS011;4181;43.416;24.598;2024-01-30T02:06:33;5.53;;;4.33;;
8285;SDS011;4181;43.416;24.598;2024-01-30T02:09:02;9.33;;;5.10;;
8285;SDS011;4181;43.416;24.598;2024-01-30T02:11:29;8.37;;;5.17;;
8285;SDS011;4181;43.416;24.598;2024-01-30T02:13:55;9.93;;;3.97;;
8285;SDS011;4181;43.416;24.598;2024-01-30T02:16:21;9.17;;;4.23;;
8285;SDS011;4181;43.416;24.598;2024-01-30T02:18:46;9.23;;;6.43;;
8285;SDS011;4181;43.416;24.598;2024-01-30T02:21:16;10.93;;;5.73;;
8285;SDS011;4181;43.416;24.598;2024-01-30T02:23:43;9.20;;;6.57;;
8285;SDS011;4181;43.416;24.598;2024-01-30T02:26:10;10.03;;;5.90;;
8285;SDS011;4181;43.416;24.598;2024-01-30T02:28:37;7.60;;;5.03;;
8285;SDS011;4181;43.416;24.598;2024-01-30T02:31:02;7.47;;;5.40;;
8285;SDS011;4181;43.416;24.598;2024-01-30T02:33:28;5.97;;;4.60;;
8285;SDS011;4181;43.416;24.598;2024-01-30T02:35:53;12.67;;;5.23;;
8285;SDS011;4181;43.416;24.598;2024-01-30T02:38:18;9.83;;;5.07;;
8285;SDS011;4181;43.416;24.598;2024-01-30T02:40:44;11.20;;;6.30;;
8285;SDS011;4181;43.416;24.598;2024-01-30T02:43:09;9.33;;;5.20;;
8285;SDS011;4181;43.416;24.598;2024-01-30T02:45:35;12.30;;;5.87;;
8285;SDS011;4181;43.416;24.598;2024-01-30T02:48:01;15.20;;;6.27;;
8285;SDS011;4181;43.416;24.598;2024-01-30T02:50:26;10.37;;;5.47;;
8285;SDS011;4181;43.416;24.598;2024-01-30T02:52:52;8.43;;;5.13;;
8285;SDS011;4181;43.416;24.598;2024-01-30T02:55:17;6.50;;;4.70;;
8285;SDS011;4181;43.416;24.598;2024-01-30T02:57:43;8.03;;;5.60;;
8285;SDS011;4181;43.416;24.598;2024-01-30T03:00:09;9.17;;;5.33;;
8285;SDS011;4181;43.416;24.598;2024-01-30T03:02:35;10.40;;;5.33;;
8285;SDS011;4181;43.416;24.598;2024-01-30T03:05:01;11.40;;;7.03;;
8285;SDS011;4181;43.416;24.598;2024-01-30T03:07:28;7.13;;;5.30;;
8285;SDS011;4181;43.416;24.598;2024-01-30T03:09:54;10.03;;;5.53;;
8285;SDS011;4181;43.416;24.598;2024-01-30T03:12:20;8.53;;;4.90;;
8285;SDS011;4181;43.416;24.598;2024-01-30T03:14:46;20.10;;;5.67;;
8285;SDS011;4181;43.416;24.598;2024-01-30T03:17:12;6.70;;;4.47;;
8285;SDS011;4181;43.416;24.598;2024-01-30T03:19:37;9.33;;;4.97;;
8285;SDS011;4181;43.416;24.598;2024-01-30T03:22:02;5.77;;;4.77;;
8285;SDS011;4181;43.416;24.598;2024-01-30T03:24:28;12.50;;;5.03;;
8285;SDS011;4181;43.416;24.598;2024-01-30T03:26:53;10.77;;;5.33;;
8285;SDS011;4181;43.416;24.598;2024-01-30T03:29:19;7.80;;;4.80;;
8285;SDS011;4181;43.416;24.598;2024-01-30T03:31:44;6.60;;;4.17;;
8285;SDS011;4181;43.416;24.598;2024-01-30T03:34:10;9.47;;;4.13;;
8285;SDS011;4181;43.416;24.598;2024-01-30T03:36:35;5.27;;;4.77;;
8285;SDS011;4181;43.416;24.598;2024-01-30T03:39:01;12.40;;;4.63;;
8285;SDS011;4181;43.416;24.598;2024-01-30T03:41:27;5.57;;;4.40;;
8285;SDS011;4181;43.416;24.598;2024-01-30T03:43:52;9.20;;;5.60;;
8285;SDS011;4181;43.416;24.598;2024-01-30T03:46:17;8.77;;;4.57;;
8285;SDS011;4181;43.416;24.598;2024-01-30T03:48:43;6.70;;;4.20;;
8285;SDS011;4181;43.416;24.598;2024-01-30T03:51:10;5.47;;;3.87;;
8285;SDS011;4181;43.416;24.598;2024-01-30T03:53:43;8.03;;;4.43;;
8285;SDS011;4181;43.416;24.598;2024-01-30T03:56:09;7.80;;;4.43;;
8285;SDS011;4181;43.416;24.598;2024-01-30T03:58:35;5.97;;;4.23;;
8285;SDS011;4181;43.416;24.598;2024-01-30T04:01:00;4.83;;;3.90;;
8285;SDS011;4181;43.416;24.598;2024-01-30T04:03:26;8.27;;;4.57;;
8285;SDS011;4181;43.416;24.598;2024-01-30T04:05:52;7.23;;;4.00;;
8285;SDS011;4181;43.416;24.598;2024-01-30T04:08:18;10.77;;;5.57;;
8285;SDS011;4181;43.416;24.598;2024-01-30T04:10:43;12.03;;;6.93;;
8285;SDS011;4181;43.416;24.598;2024-01-30T04:13:10;8.20;;;3.27;;
8285;SDS011;4181;43.416;24.598;2024-01-30T04:15:36;7.87;;;4.20;;
8285;SDS011;4181;43.416;24.598;2024-01-30T04:18:02;7.30;;;4.60;;
8285;SDS011;4181;43.416;24.598;2024-01-30T04:20:28;6.50;;;3.57;;
8285;SDS011;4181;43.416;24.598;2024-01-30T04:22:54;10.03;;;5.40;;
8285;SDS011;4181;43.416;24.598;2024-01-30T04:25:20;8.53;;;5.80;;
8285;SDS011;4181;43.416;24.598;2024-01-30T04:27:45;9.07;;;5.33;;
8285;SDS011;4181;43.416;24.598;2024-01-30T04:30:11;11.93;;;5.43;;
8285;SDS011;4181;43.416;24.598;2024-01-30T04:32:36;11.93;;;6.97;;
8285;SDS011;4181;43.416;24.598;2024-01-30T04:35:02;9.90;;;6.07;;
8285;SDS011;4181;43.416;24.598;2024-01-30T04:37:28;15.03;;;6.53;;
8285;SDS011;4181;43.416;24.598;2024-01-30T04:39:54;8.17;;;4.23;;
8285;SDS011;4181;43.416;24.598;2024-01-30T04:42:19;8.37;;;5.40;;
8285;SDS011;4181;43.416;24.598;2024-01-30T04:44:45;9.47;;;6.77;;
8285;SDS011;4181;43.416;24.598;2024-01-30T04:47:10;6.57;;;5.23;;
8285;SDS011;4181;43.416;24.598;2024-01-30T04:49:38;6.50;;;5.20;;
8285;SDS011;4181;43.416;24.598;2024-01-30T04:52:05;10.53;;;7.03;;
8285;SDS011;4181;43.416;24.598;2024-01-30T04:54:31;15.23;;;8.47;;
8285;SDS011;4181;43.416;24.598;2024-01-30T04:56:56;10.40;;;7.43;;
8285;SDS011;4181;43.416;24.598;2024-01-30T04:59:22;16.37;;;11.23;;
8285;SDS011;4181;43.416;24.598;2024-01-30T05:01:47;13.00;;;8.13;;
8285;SDS011;4181;43.416;24.598;2024-01-30T05:04:14;16.93;;;8.40;;
8285;SDS011;4181;43.416;24.598;2024-01-30T05:06:40;21.93;;;9.03;;
8285;SDS011;4181;43.416;24.598;2024-01-30T05:09:05;17.93;;;10.67;;
8285;SDS011;4181;43.416;24.598;2024-01-30T05:11:30;19.87;;;7.87;;
8285;SDS011;4181;43.416;24.598;2024-01-30T05:13:56;18.50;;;8.83;;
8285;SDS011;4181;43.416;24.598;2024-01-30T05:16:22;16.13;;;8.50;;
8285;SDS011;4181;43.416;24.598;2024-01-30T05:18:47;27.03;;;11.63;;
8285;SDS011;4181;43.416;24.598;2024-01-30T05:21:12;16.20;;;9.80;;
8285;SDS011;4181;43.416;24.598;2024-01-30T05:23:38;13.30;;;10.00;;
8285;SDS011;4181;43.416;24.598;2024-01-30T05:26:04;13.30;;;8.83;;
8285;SDS011;4181;43.416;24.598;2024-01-30T05:28:29;15.10;;;9.10;;
8285;SDS011;4181;43.416;24.598;2024-01-30T05:30:55;13.03;;;7.73;;
8285;SDS011;4181;43.416;24.598;2024-01-30T05:33:23;13.37;;;7.43;;
8285;SDS011;4181;43.416;24.598;2024-01-30T05:35:48;10.97;;;8.00;;
8285;SDS011;4181;43.416;24.598;2024-01-30T05:38:15;7.77;;;5.60;;
8285;SDS011;4181;43.416;24.598;2024-01-30T05:40:41;11.00;;;6.37;;
8285;SDS011;4181;43.416;24.598;2024-01-30T05:43:06;14.13;;;7.73;;
8285;SDS011;4181;43.416;24.598;2024-01-30T05:45:33;13.50;;;7.27;;
8285;SDS011;4181;43.416;24.598;2024-01-30T05:48:00;22.47;;;9.03;;
8285;SDS011;4181;43.416;24.598;2024-01-30T05:50:25;9.67;;;6.07;;
8285;SDS011;4181;43.416;24.598;2024-01-30T05:52:52;10.47;;;7.60;;
8285;SDS011;4181;43.416;24.598;2024-01-30T05:55:17;14.60;;;8.37;;
8285;SDS011;4181;43.416;24.598;2024-01-30T05:57:43;8.13;;;5.73;;
8285;SDS011;4181;43.416;24.598;2024-01-30T06:00:08;12.77;;;6.33;;
8285;SDS011;4181;43.416;24.598;2024-01-30T06:02:34;19.20;;;8.17;;
8285;SDS011;4181;43.416;24.598;2024-01-30T06:04:59;23.53;;;12.33;;
8285;SDS011;4181;43.416;24.598;2024-01-30T06:07:26;9.60;;;7.77;;
8285;SDS011;4181;43.416;24.598;2024-01-30T06:09:51;12.87;;;9.00;;
8285;SDS011;4181;43.416;24.598;2024-01-30T06:12:17;17.47;;;9.30;;
8285;SDS011;4181;43.416;24.598;2024-01-30T06:14:42;10.57;;;7.90;;
8285;SDS011;4181;43.416;24.598;2024-01-30T06:17:08;16.57;;;6.40;;
8285;SDS011;4181;43.416;24.598;2024-01-30T06:19:34;12.57;;;6.87;;
8285;SDS011;4181;43.416;24.598;2024-01-30T06:21:59;11.67;;;6.50;;
8285;SDS011;4181;43.416;24.598;2024-01-30T06:24:25;8.87;;;6.30;;
8285;SDS011;4181;43.416;24.598;2024-01-30T06:26:50;22.13;;;11.20;;
8285;SDS011;4181;43.416;24.598;2024-01-30T06:29:16;24.63;;;11.03;;
8285;SDS011;4181;43.416;24.598;2024-01-30T06:31:42;8.03;;;6.53;;
8285;SDS011;4181;43.416;24.598;2024-01-30T06:34:08;12.40;;;6.27;;
8285;SDS011;4181;43.416;24.598;2024-01-30T06:36:34;12.83;;;6.10;;
8285;SDS011;4181;43.416;24.598;2024-01-30T06:38:59;14.70;;;9.57;;
8285;SDS011;4181;43.416;24.598;2024-01-30T06:41:25;11.27;;;7.47;;
8285;SDS011;4181;43.416;24.598;2024-01-30T06:43:51;18.50;;;12.20;;
8285;SDS011;4181;43.416;24.598;2024-01-30T06:46:17;14.40;;;9.97;;
8285;SDS011;4181;43.416;24.598;2024-01-30T06:48:42;14.47;;;8.57;;
8285;SDS011;4181;43.416;24.598;2024-01-30T06:51:10;17.17;;;9.80;;
8285;SDS011;4181;43.416;24.598;2024-01-30T06:53:35;14.00;;;7.20;;
8285;SDS011;4181;43.416;24.598;2024-01-30T06:56:01;12.80;;;7.70;;
8285;SDS011;4181;43.416;24.598;2024-01-30T06:58:26;13.30;;;7.27;;
8285;SDS011;4181;43.416;24.598;2024-01-30T07:00:52;12.50;;;7.37;;
8285;SDS011;4181;43.416;24.598;2024-01-30T07:03:17;15.77;;;8.43;;
8285;SDS011;4181;43.416;24.598;2024-01-30T07:05:43;17.73;;;9.63;;
8285;SDS011;4181;43.416;24.598;2024-01-30T07:08:08;25.70;;;10.27;;
8285;SDS011;4181;43.416;24.598;2024-01-30T07:10:34;19.33;;;10.30;;
8285;SDS011;4181;43.416;24.598;2024-01-30T07:13:00;15.63;;;8.23;;
8285;SDS011;4181;43.416;24.598;2024-01-30T07:15:26;20.50;;;9.27;;
8285;SDS011;4181;43.416;24.598;2024-01-30T07:17:51;16.70;;;8.83;;
8285;SDS011;4181;43.416;24.598;2024-01-30T07:20:17;13.67;;;8.87;;
8285;SDS011;4181;43.416;24.598;2024-01-30T07:22:45;15.23;;;6.97;;
8285;SDS011;4181;43.416;24.598;2024-01-30T07:25:11;9.73;;;5.70;;
8285;SDS011;4181;43.416;24.598;2024-01-30T07:27:36;8.53;;;6.00;;
8285;SDS011;4181;43.416;24.598;2024-01-30T07:30:02;10.07;;;6.83;;
8285;SDS011;4181;43.416;24.598;2024-01-30T07:32:27;9.10;;;6.33;;
8285;SDS011;4181;43.416;24.598;2024-01-30T07:34:53;7.27;;;4.47;;
8285;SDS011;4181;43.416;24.598;2024-01-30T07:37:18;14.87;;;5.80;;
8285;SDS011;4181;43.416;24.598;2024-01-30T07:39:44;9.37;;;5.40;;
8285;SDS011;4181;43.416;24.598;2024-01-30T07:42:10;7.80;;;4.50;;
8285;SDS011;4181;43.416;24.598;2024-01-30T07:44:35;10.83;;;6.17;;
8285;SDS011;4181;43.416;24.598;2024-01-30T07:47:01;9.93;;;5.87;;
8285;SDS011;4181;43.416;24.598;2024-01-30T07:49:27;9.60;;;4.47;;
8285;SDS011;4181;43.416;24.598;2024-01-30T07:51:54;9.77;;;4.43;;
8285;SDS011;4181;43.416;24.598;2024-01-30T07:54:20;8.40;;;3.37;;
8285;SDS011;4181;43.416;24.598;2024-01-30T07:56:45;9.07;;;5.97;;
8285;SDS011;4181;43.416;24.598;2024-01-30T07:59:11;15.37;;;6.20;;
8285;SDS011;4181;43.416;24.598;2024-01-30T08:01:37;8.27;;;4.40;;
8285;SDS011;4181;43.416;24.598;2024-01-30T08:04:02;5.13;;;4.47;;
8285;SDS011;4181;43.416;24.598;2024-01-30T08:06:28;8.23;;;4.97;;
8285;SDS011;4181;43.416;24.598;2024-01-30T08:08:53;8.57;;;5.83;;
8285;SDS011;4181;43.416;24.598;2024-01-30T08:11:22;8.50;;;6.27;;
8285;SDS011;4181;43.416;24.598;2024-01-30T08:13:51;26.43;;;9.17;;
8285;SDS011;4181;43.416;24.598;2024-01-30T08:16:17;19.90;;;9.43;;
8285;SDS011;4181;43.416;24.598;2024-01-30T08:18:43;19.47;;;9.83;;
8285;SDS011;4181;43.416;24.598;2024-01-30T08:21:08;20.20;;;10.03;;
8285;SDS011;4181;43.416;24.598;2024-01-30T08:23:34;10.67;;;5.77;;
8285;SDS011;4181;43.416;24.598;2024-01-30T08:25:59;10.00;;;5.63;;
8285;SDS011;4181;43.416;24.598;2024-01-30T08:28:25;10.03;;;6.27;;
8285;SDS011;4181;43.416;24.598;2024-01-30T08:30:51;7.67;;;4.60;;
8285;SDS011;4181;43.416;24.598;2024-01-30T08:33:16;10.37;;;5.87;;
8285;SDS011;4181;43.416;24.598;2024-01-30T08:35:42;9.60;;;6.23;;
8285;SDS011;4181;43.416;24.598;2024-01-30T08:38:07;12.73;;;6.47;;
8285;SDS011;4181;43.416;24.598;2024-01-30T08:40:33;11.10;;;6.00;;
8285;SDS011;4181;43.416;24.598;2024-01-30T08:42:58;13.13;;;5.90;;
8285;SDS011;4181;43.416;24.598;2024-01-30T08:45:24;9.30;;;6.13;;
8285;SDS011;4181;43.416;24.598;2024-01-30T08:47:49;12.40;;;5.93;;
8285;SDS011;4181;43.416;24.598;2024-01-30T08:50:15;9.67;;;5.33;;
8285;SDS011;4181;43.416;24.598;2024-01-30T08:52:40;12.70;;;6.10;;
8285;SDS011;4181;43.416;24.598;2024-01-30T08:55:06;13.97;;;6.17;;
8285;SDS011;4181;43.416;24.598;2024-01-30T08:57:31;14.47;;;6.83;;
8285;SDS011;4181;43.416;24.598;2024-01-30T08:59:57;9.00;;;4.30;;
8285;SDS011;4181;43.416;24.598;2024-01-30T09:02:22;7.37;;;4.23;;
8285;SDS011;4181;43.416;24.598;2024-01-30T09:04:48;5.23;;;4.67;;
8285;SDS011;4181;43.416;24.598;2024-01-30T09:07:13;8.27;;;4.70;;
8285;SDS011;4181;43.416;24.598;2024-01-30T09:09:39;10.83;;;5.77;;
8285;SDS011;4181;43.416;24.598;2024-01-30T09:12:07;10.80;;;6.47;;
8285;SDS011;4181;43.416;24.598;2024-01-30T09:14:34;11.20;;;5.40;;
8285;SDS011;4181;43.416;24.598;2024-01-30T09:17:00;10.53;;;4.83;;
8285;SDS011;4181;43.416;24.598;2024-01-30T09:19:28;10.73;;;6.20;;
8285;SDS011;4181;43.416;24.598;2024-01-30T09:21:53;11.60;;;4.83;;
8285;SDS011;4181;43.416;24.598;2024-01-30T09:24:19;9.73;;;5.07;;
8285;SDS011;4181;43.416;24.598;2024-01-30T09:26:44;9.60;;;5.03;;
8285;SDS011;4181;43.416;24.598;2024-01-30T09:29:10;13.83;;;6.20;;
8285;SDS011;4181;43.416;24.598;2024-01-30T09:31:36;10.13;;;6.83;;
8285;SDS011;4181;43.416;24.598;2024-01-30T09:34:01;8.47;;;5.57;;
8285;SDS011;4181;43.416;24.598;2024-01-30T09:36:27;9.33;;;6.13;;
8285;SDS011;4181;43.416;24.598;2024-01-30T09:38:52;7.53;;;5.27;;
8285;SDS011;4181;43.416;24.598;2024-01-30T09:41:18;9.53;;;5.17;;
8285;SDS011;4181;43.416;24.598;2024-01-30T09:43:47;9.60;;;5.93;;
8285;SDS011;4181;43.416;24.598;2024-01-30T09:46:16;7.17;;;5.00;;
8285;SDS011;4181;43.416;24.598;2024-01-30T09:48:43;10.60;;;4.70;;
8285;SDS011;4181;43.416;24.598;2024-01-30T09:51:11;6.47;;;4.33;;
8285;SDS011;4181;43.416;24.598;2024-01-30T09:53:40;7.83;;;5.93;;
8285;SDS011;4181;43.416;24.598;2024-01-30T09:56:08;19.97;;;4.77;;
8285;SDS011;4181;43.416;24.598;2024-01-30T09:58:33;8.13;;;5.60;;
8285;SDS011;4181;43.416;24.598;2024-01-30T10:00:59;8.20;;;4.90;;
8285;SDS011;4181;43.416;24.598;2024-01-30T10:03:25;8.90;;;4.63;;
8285;SDS011;4181;43.416;24.598;2024-01-30T10:05:51;9.17;;;4.83;;
8285;SDS011;4181;43.416;24.598;2024-01-30T10:08:19;12.27;;;6.13;;
8285;SDS011;4181;43.416;24.598;2024-01-30T10:10:46;7.10;;;4.97;;
8285;SDS011;4181;43.416;24.598;2024-01-30T10:13:15;14.23;;;4.67;;
8285;SDS011;4181;43.416;24.598;2024-01-30T10:15:41;9.27;;;4.93;;
8285;SDS011;4181;43.416;24.598;2024-01-30T10:18:08;7.93;;;4.70;;
8285;SDS011;4181;43.416;24.598;2024-01-30T10:20:35;7.70;;;5.07;;
8285;SDS011;4181;43.416;24.598;2024-01-30T10:23:00;8.00;;;5.13;;
8285;SDS011;4181;43.416;24.598;2024-01-30T10:25:26;7.73;;;5.33;;
8285;SDS011;4181;43.416;24.598;2024-01-30T10:27:53;9.67;;;5.27;;
8285;SDS011;4181;43.416;24.598;2024-01-30T10:30:20;14.60;;;6.00;;
8285;SDS011;4181;43.416;24.598;2024-01-30T10:32:49;8.13;;;5.43;;
8285;SDS011;4181;43.416;24.598;2024-01-30T10:35:15;6.87;;;4.70;;
8285;SDS011;4181;43.416;24.598;2024-01-30T10:37:44;8.83;;;5.33;;
8285;SDS011;4181;43.416;24.598;2024-01-30T10:40:14;4.77;;;4.30;;
8285;SDS011;4181;43.416;24.598;2024-01-30T10:42:43;12.63;;;5.00;;
8285;SDS011;4181;43.416;24.598;2024-01-30T10:45:13;10.20;;;5.63;;
8285;SDS011;4181;43.416;24.598;2024-01-30T10:47:42;8.57;;;4.90;;
8285;SDS011;4181;43.416;24.598;2024-01-30T10:50:09;10.23;;;6.33;;
8285;SDS011;4181;43.416;24.598;2024-01-30T10:52:35;8.27;;;5.30;;
8285;SDS011;4181;43.416;24.598;2024-01-30T10:55:01;12.63;;;5.63;;
8285;SDS011;4181;43.416;24.598;2024-01-30T10:57:30;7.00;;;4.30;;
8285;SDS011;4181;43.416;24.598;2024-01-30T10:59:59;11.07;;;6.13;;
8285;SDS011;4181;43.416;24.598;2024-01-30T11:02:26;9.13;;;5.23;;
8285;SDS011;4181;43.416;24.598;2024-01-30T11:04:59;11.30;;;7.33;;
8285;SDS011;4181;43.416;24.598;2024-01-30T11:07:26;6.67;;;4.97;;
8285;SDS011;4181;43.416;24.598;2024-01-30T11:09:54;6.43;;;4.73;;
8285;SDS011;4181;43.416;24.598;2024-01-30T11:12:29;7.90;;;4.43;;
8285;SDS011;4181;43.416;24.598;2024-01-30T11:15:05;8.77;;;4.73;;
8285;SDS011;4181;43.416;24.598;2024-01-30T11:17:44;8.03;;;4.80;;
8285;SDS011;4181;43.416;24.598;2024-01-30T11:20:16;8.00;;;4.17;;
8285;SDS011;4181;43.416;24.598;2024-01-30T11:22:45;6.87;;;4.67;;
8285;SDS011;4181;43.416;24.598;2024-01-30T11:25:12;9.33;;;4.60;;
8285;SDS011;4181;43.416;24.598;2024-01-30T11:27:42;4.47;;;3.73;;
8285;SDS011;4181;43.416;24.598;2024-01-30T11:30:09;11.83;;;5.90;;
8285;SDS011;4181;43.416;24.598;2024-01-30T11:32:34;12.73;;;5.63;;
8285;SDS011;4181;43.416;24.598;2024-01-30T11:35:00;7.00;;;4.90;;
8285;SDS011;4181;43.416;24.598;2024-01-30T11:37:30;6.80;;;4.30;;
8285;SDS011;4181;43.416;24.598;2024-01-30T11:39:56;5.43;;;3.70;;
8285;SDS011;4181;43.416;24.598;2024-01-30T11:42:23;6.30;;;4.17;;
8285;SDS011;4181;43.416;24.598;2024-01-30T11:44:50;5.83;;;4.10;;
8285;SDS011;4181;43.416;24.598;2024-01-30T11:47:16;8.90;;;4.10;;
8285;SDS011;4181;43.416;24.598;2024-01-30T11:49:42;6.70;;;4.47;;
8285;SDS011;4181;43.416;24.598;2024-01-30T11:52:09;7.70;;;4.33;;
8285;SDS011;4181;43.416;24.598;2024-01-30T11:54:35;13.00;;;4.13;;
8285;SDS011;4181;43.416;24.598;2024-01-30T11:57:01;6.50;;;4.30;;
8285;SDS011;4181;43.416;24.598;2024-01-30T11:59:26;6.80;;;4.20;;
8285;SDS011;4181;43.416;24.598;2024-01-30T12:01:52;7.80;;;4.37;;
8285;SDS011;4181;43.416;24.598;2024-01-30T12:04:17;4.60;;;3.30;;
8285;SDS011;4181;43.416;24.598;2024-01-30T12:06:43;6.23;;;4.40;;
8285;SDS011;4181;43.416;24.598;2024-01-30T12:09:09;8.47;;;5.20;;
8285;SDS011;4181;43.416;24.598;2024-01-30T12:11:47;8.27;;;5.50;;
8285;SDS011;4181;43.416;24.598;2024-01-30T12:14:14;7.70;;;3.30;;
8285;SDS011;4181;43.416;24.598;2024-01-30T12:16:41;6.77;;;4.17;;
8285;SDS011;4181;43.416;24.598;2024-01-30T12:19:07;7.50;;;4.67;;
8285;SDS011;4181;43.416;24.598;2024-01-30T12:21:33;5.70;;;4.10;;
8285;SDS011;4181;43.416;24.598;2024-01-30T12:24:00;5.87;;;3.97;;
8285;SDS011;4181;43.416;24.598;2024-01-30T12:26:25;3.83;;;3.40;;
8285;SDS011;4181;43.416;24.598;2024-01-30T12:28:54;7.67;;;4.63;;
8285;SDS011;4181;43.416;24.598;2024-01-30T12:31:27;5.27;;;3.37;;
8285;SDS011;4181;43.416;24.598;2024-01-30T12:33:53;6.27;;;3.87;;
8285;SDS011;4181;43.416;24.598;2024-01-30T12:36:19;8.00;;;4.17;;
8285;SDS011;4181;43.416;24.598;2024-01-30T12:38:45;6.50;;;4.20;;
8285;SDS011;4181;43.416;24.598;2024-01-30T12:41:11;3.43;;;3.10;;
8285;SDS011;4181;43.416;24.598;2024-01-30T12:43:36;4.93;;;3.63;;
8285;SDS011;4181;43.416;24.598;2024-01-30T12:46:02;7.07;;;4.03;;
8285;SDS011;4181;43.416;24.598;2024-01-30T12:48:28;7.40;;;4.13;;
8285;SDS011;4181;43.416;24.598;2024-01-30T12:50:54;7.03;;;3.73;;
8285;SDS011;4181;43.416;24.598;2024-01-30T12:53:21;5.20;;;3.43;;
8285;SDS011;4181;43.416;24.598;2024-01-30T12:55:46;4.70;;;3.30;;
8285;SDS011;4181;43.416;24.598;2024-01-30T12:58:12;3.17;;;2.67;;
8285;SDS011;4181;43.416;24.598;2024-01-30T13:00:37;4.97;;;3.73;;
8285;SDS011;4181;43.416;24.598;2024-01-30T13:03:03;5.03;;;3.30;;
8285;SDS011;4181;43.416;24.598;2024-01-30T13:05:29;7.73;;;4.20;;
8285;SDS011;4181;43.416;24.598;2024-01-30T13:07:54;16.97;;;8.17;;
8285;SDS011;4181;43.416;24.598;2024-01-30T13:10:22;14.90;;;6.57;;
8285;SDS011;4181;43.416;24.598;2024-01-30T13:12:47;4.47;;;4.03;;
8285;SDS011;4181;43.416;24.598;2024-01-30T13:15:13;6.60;;;3.57;;
8285;SDS011;4181;43.416;24.598;2024-01-30T13:17:38;13.07;;;4.07;;
8285;SDS011;4181;43.416;24.598;2024-01-30T13:20:04;7.03;;;3.27;;
8285;SDS011;4181;43.416;24.598;2024-01-30T13:22:30;6.90;;;5.33;;
8285;SDS011;4181;43.416;24.598;2024-01-30T13:24:57;17.37;;;8.23;;
8285;SDS011;4181;43.416;24.598;2024-01-30T13:27:23;15.40;;;8.20;;
8285;SDS011;4181;43.416;24.598;2024-01-30T13:29:49;9.07;;;6.97;;
8285;SDS011;4181;43.416;24.598;2024-01-30T13:32:14;9.47;;;4.50;;
8285;SDS011;4181;43.416;24.598;2024-01-30T13:34:40;5.30;;;3.97;;
8285;SDS011;4181;43.416;24.598;2024-01-30T13:37:06;6.70;;;4.03;;
8285;SDS011;4181;43.416;24.598;2024-01-30T13:39:31;7.93;;;4.13;;
8285;SDS011;4181;43.416;24.598;2024-01-30T13:41:57;10.50;;;5.10;;
8285;SDS011;4181;43.416;24.598;2024-01-30T13:44:22;8.10;;;4.53;;
8285;SDS011;4181;43.416;24.598;2024-01-30T13:46:48;5.70;;;4.40;;
8285;SDS011;4181;43.416;24.598;2024-01-30T13:49:13;7.03;;;3.73;;
8285;SDS011;4181;43.416;24.598;2024-01-30T13:51:39;7.37;;;4.40;;
8285;SDS011;4181;43.416;24.598;2024-01-30T13:54:04;4.97;;;3.97;;
8285;SDS011;4181;43.416;24.598;2024-01-30T13:56:29;11.47;;;6.57;;
8285;SDS011;4181;43.416;24.598;2024-01-30T13:58:55;7.90;;;4.53;;
8285;SDS011;4181;43.416;24.598;2024-01-30T14:01:21;6.97;;;3.57;;
8285;SDS011;4181;43.416;24.598;2024-01-30T14:03:47;7.33;;;4.53;;
8285;SDS011;4181;43.416;24.598;2024-01-30T14:06:13;10.73;;;5.20;;
8285;SDS011;4181;43.416;24.598;2024-01-30T14:08:38;5.93;;;4.47;;
8285;SDS011;4181;43.416;24.598;2024-01-30T14:11:04;5.37;;;3.83;;
8285;SDS011;4181;43.416;24.598;2024-01-30T14:13:30;5.87;;;3.93;;
8285;SDS011;4181;43.416;24.598;2024-01-30T14:15:57;7.40;;;4.37;;
8285;SDS011;4181;43.416;24.598;2024-01-30T14:18:23;7.83;;;4.87;;
8285;SDS011;4181;43.416;24.598;2024-01-30T14:20:50;7.50;;;4.93;;
8285;SDS011;4181;43.416;24.598;2024-01-30T14:23:17;8.17;;;4.27;;
8285;SDS011;4181;43.416;24.598;2024-01-30T14:25:42;5.17;;;4.20;;
8285;SDS011;4181;43.416;24.598;2024-01-30T14:28:08;9.53;;;5.87;;
8285;SDS011;4181;43.416;24.598;2024-01-30T14:30:33;8.43;;;5.57;;
8285;SDS011;4181;43.416;24.598;2024-01-30T14:32:59;7.40;;;4.47;;
8285;SDS011;4181;43.416;24.598;2024-01-30T14:35:24;6.43;;;4.57;;
8285;SDS011;4181;43.416;24.598;2024-01-30T14:37:50;7.90;;;5.43;;
8285;SDS011;4181;43.416;24.598;2024-01-30T14:40:15;7.20;;;4.97;;
8285;SDS011;4181;43.416;24.598;2024-01-30T14:42:41;17.00;;;5.67;;
8285;SDS011;4181;43.416;24.598;2024-01-30T14:45:07;6.53;;;5.03;;
8285;SDS011;4181;43.416;24.598;2024-01-30T14:47:33;10.00;;;5.10;;